sensor_id;sensor_type;location;lat;lon;timestamp;P1;durP1;ratioP1;P2;durP2;ratioP2
55372;SDS011;41249;47.838;16.490;2023-02-03T00:01:48;0.55;;;0.52;;
55372;SDS011;41249;47.838;16.490;2023-02-03T00:04:14;0.57;;;0.57;;
55372;SDS011;41249;47.838;16.490;2023-02-03T00:06:41;0.73;;;0.60;;
55372;SDS011;41249;47.838;16.490;2023-02-03T00:09:08;0.50;;;0.50;;
55372;SDS011;41249;47.838;16.490;2023-02-03T00:11:34;0.77;;;0.60;;
55372;SDS011;41249;47.838;16.490;2023-02-03T00:14:01;1.38;;;0.65;;
55372;SDS011;41249;47.838;16.490;2023-02-03T00:16:30;2.58;;;1.05;;
55372;SDS011;41249;47.838;16.490;2023-02-03T00:18:57;0.85;;;0.70;;
55372;SDS011;41249;47.838;16.490;2023-02-03T00:21:24;1.25;;;0.88;;
55372;SDS011;41249;47.838;16.490;2023-02-03T00:23:50;1.60;;;1.50;;
55372;SDS011;41249;47.838;16.490;2023-02-03T00:26:17;0.63;;;0.63;;
55372;SDS011;41249;47.838;16.490;2023-02-03T00:28:44;1.65;;;0.70;;
55372;SDS011;41249;47.838;16.490;2023-02-03T00:31:14;2.70;;;0.90;;
55372;SDS011;41249;47.838;16.490;2023-02-03T00:33:46;2.33;;;0.70;;
55372;SDS011;41249;47.838;16.490;2023-02-03T00:36:13;0.82;;;0.60;;
55372;SDS011;41249;47.838;16.490;2023-02-03T00:38:39;0.65;;;0.65;;
55372;SDS011;41249;47.838;16.490;2023-02-03T00:41:06;0.75;;;0.60;;
55372;SDS011;41249;47.838;16.490;2023-02-03T00:43:33;1.42;;;0.77;;
55372;SDS011;41249;47.838;16.490;2023-02-03T00:45:59;0.52;;;0.52;;
55372;SDS011;41249;47.838;16.490;2023-02-03T00:48:26;0.93;;;0.70;;
55372;SDS011;41249;47.838;16.490;2023-02-03T00:50:53;1.80;;;0.80;;
55372;SDS011;41249;47.838;16.490;2023-02-03T00:53:19;1.02;;;0.80;;
55372;SDS011;41249;47.838;16.490;2023-02-03T00:55:46;0.70;;;0.70;;
55372;SDS011;41249;47.838;16.490;2023-02-03T00:58:12;0.88;;;0.63;;
55372;SDS011;41249;47.838;16.490;2023-02-03T01:00:39;0.63;;;0.50;;
55372;SDS011;41249;47.838;16.490;2023-02-03T01:03:05;0.80;;;0.63;;
55372;SDS011;41249;47.838;16.490;2023-02-03T01:05:32;1.40;;;0.80;;
55372;SDS011;41249;47.838;16.490;2023-02-03T01:07:59;1.73;;;0.60;;
55372;SDS011;41249;47.838;16.490;2023-02-03T01:10:26;0.68;;;0.55;;
55372;SDS011;41249;47.838;16.490;2023-02-03T01:12:54;0.75;;;0.73;;
55372;SDS011;41249;47.838;16.490;2023-02-03T01:15:20;0.85;;;0.50;;
55372;SDS011;41249;47.838;16.490;2023-02-03T01:17:47;2.42;;;1.38;;
55372;SDS011;41249;47.838;16.490;2023-02-03T01:20:14;0.60;;;0.60;;
55372;SDS011;41249;47.838;16.490;2023-02-03T01:22:42;3.35;;;0.75;;
55372;SDS011;41249;47.838;16.490;2023-02-03T01:25:08;0.90;;;0.80;;
55372;SDS011;41249;47.838;16.490;2023-02-03T01:27:35;3.58;;;0.65;;
55372;SDS011;41249;47.838;16.490;2023-02-03T01:30:02;0.65;;;0.60;;
55372;SDS011;41249;47.838;16.490;2023-02-03T01:32:29;2.20;;;0.82;;
55372;SDS011;41249;47.838;16.490;2023-02-03T01:34:56;0.90;;;0.80;;
55372;SDS011;41249;47.838;16.490;2023-02-03T01:37:22;0.60;;;0.60;;
55372;SDS011;41249;47.838;16.490;2023-02-03T01:39:49;1.02;;;0.75;;
55372;SDS011;41249;47.838;16.490;2023-02-03T01:42:15;0.90;;;0.70;;
55372;SDS011;41249;47.838;16.490;2023-02-03T01:44:43;0.50;;;0.50;;
55372;SDS011;41249;47.838;16.490;2023-02-03T01:47:15;0.43;;;0.43;;
55372;SDS011;41249;47.838;16.490;2023-02-03T01:52:43;0.55;;;0.52;;
55372;SDS011;41249;47.838;16.490;2023-02-03T01:55:15;0.82;;;0.70;;
55372;SDS011;41249;47.838;16.490;2023-02-03T01:57:51;0.55;;;0.50;;
55372;SDS011;41249;47.838;16.490;2023-02-03T02:00:21;2.17;;;0.60;;
55372;SDS011;41249;47.838;16.490;2023-02-03T02:02:48;0.60;;;0.50;;
55372;SDS011;41249;47.838;16.490;2023-02-03T02:08:14;0.75;;;0.60;;
55372;SDS011;41249;47.838;16.490;2023-02-03T02:10:44;0.75;;;0.60;;
55372;SDS011;41249;47.838;16.490;2023-02-03T02:13:11;2.63;;;0.70;;
55372;SDS011;41249;47.838;16.490;2023-02-03T02:15:48;0.55;;;0.50;;
55372;SDS011;41249;47.838;16.490;2023-02-03T02:18:39;0.40;;;0.40;;
55372;SDS011;41249;47.838;16.490;2023-02-03T02:27:25;0.50;;;0.50;;
55372;SDS011;41249;47.838;16.490;2023-02-03T02:35:50;0.30;;;0.30;;
55372;SDS011;41249;47.838;16.490;2023-02-03T02:46:45;0.85;;;0.38;;
55372;SDS011;41249;47.838;16.490;2023-02-03T02:52:03;0.60;;;0.32;;
55372;SDS011;41249;47.838;16.490;2023-02-03T02:54:33;0.45;;;0.40;;
55372;SDS011;41249;47.838;16.490;2023-02-03T02:57:05;0.25;;;0.25;;
55372;SDS011;41249;47.838;16.490;2023-02-03T02:59:35;0.40;;;0.40;;
55372;SDS011;41249;47.838;16.490;2023-02-03T03:02:01;1.10;;;0.30;;
55372;SDS011;41249;47.838;16.490;2023-02-03T03:04:29;0.35;;;0.35;;
55372;SDS011;41249;47.838;16.490;2023-02-03T03:07:04;0.30;;;0.30;;
55372;SDS011;41249;47.838;16.490;2023-02-03T03:09:45;0.63;;;0.30;;
55372;SDS011;41249;47.838;16.490;2023-02-03T03:12:23;1.35;;;1.13;;
55372;SDS011;41249;47.838;16.490;2023-02-03T03:14:55;0.65;;;0.40;;
55372;SDS011;41249;47.838;16.490;2023-02-03T03:17:30;0.60;;;0.30;;
55372;SDS011;41249;47.838;16.490;2023-02-03T03:20:04;1.13;;;0.60;;
55372;SDS011;41249;47.838;16.490;2023-02-03T03:22:38;0.22;;;0.22;;
55372;SDS011;41249;47.838;16.490;2023-02-03T03:25:14;0.30;;;0.30;;
55372;SDS011;41249;47.838;16.490;2023-02-03T03:27:52;0.30;;;0.30;;
55372;SDS011;41249;47.838;16.490;2023-02-03T03:30:23;0.63;;;0.43;;
55372;SDS011;41249;47.838;16.490;2023-02-03T03:32:55;0.32;;;0.32;;
55372;SDS011;41249;47.838;16.490;2023-02-03T03:35:23;0.70;;;0.50;;
55372;SDS011;41249;47.838;16.490;2023-02-03T03:41:01;1.70;;;0.40;;
55372;SDS011;41249;47.838;16.490;2023-02-03T03:43:27;0.57;;;0.50;;
55372;SDS011;41249;47.838;16.490;2023-02-03T03:51:05;0.32;;;0.32;;
55372;SDS011;41249;47.838;16.490;2023-02-03T03:53:36;0.35;;;0.35;;
55372;SDS011;41249;47.838;16.490;2023-02-03T03:56:08;0.93;;;0.45;;
55372;SDS011;41249;47.838;16.490;2023-02-03T03:58:39;0.30;;;0.30;;
55372;SDS011;41249;47.838;16.490;2023-02-03T04:01:10;1.95;;;0.35;;
55372;SDS011;41249;47.838;16.490;2023-02-03T04:03:42;1.25;;;0.40;;
55372;SDS011;41249;47.838;16.490;2023-02-03T04:06:11;0.30;;;0.30;;
55372;SDS011;41249;47.838;16.490;2023-02-03T04:08:38;0.30;;;0.30;;
55372;SDS011;41249;47.838;16.490;2023-02-03T04:11:05;0.20;;;0.20;;
55372;SDS011;41249;47.838;16.490;2023-02-03T04:13:32;0.30;;;0.30;;
55372;SDS011;41249;47.838;16.490;2023-02-03T04:15:59;0.73;;;0.32;;
55372;SDS011;41249;47.838;16.490;2023-02-03T04:18:25;0.95;;;0.30;;
55372;SDS011;41249;47.838;16.490;2023-02-03T04:20:52;1.33;;;0.40;;
55372;SDS011;41249;47.838;16.490;2023-02-03T04:23:18;0.95;;;0.50;;
55372;SDS011;41249;47.838;16.490;2023-02-03T04:25:45;0.47;;;0.40;;
55372;SDS011;41249;47.838;16.490;2023-02-03T04:28:11;1.85;;;0.40;;
55372;SDS011;41249;47.838;16.490;2023-02-03T04:30:38;1.65;;;1.13;;
55372;SDS011;41249;47.838;16.490;2023-02-03T04:33:05;0.30;;;0.30;;
55372;SDS011;41249;47.838;16.490;2023-02-03T04:35:31;0.40;;;0.40;;
55372;SDS011;41249;47.838;16.490;2023-02-03T04:37:58;1.38;;;0.77;;
55372;SDS011;41249;47.838;16.490;2023-02-03T04:40:24;0.50;;;0.50;;
55372;SDS011;41249;47.838;16.490;2023-02-03T04:42:51;0.70;;;0.60;;
55372;SDS011;41249;47.838;16.490;2023-02-03T04:45:17;1.10;;;0.57;;
55372;SDS011;41249;47.838;16.490;2023-02-03T04:47:44;1.23;;;0.50;;
55372;SDS011;41249;47.838;16.490;2023-02-03T04:50:19;0.63;;;0.55;;
55372;SDS011;41249;47.838;16.490;2023-02-03T04:52:45;1.50;;;0.82;;
55372;SDS011;41249;47.838;16.490;2023-02-03T04:55:12;1.67;;;0.95;;
55372;SDS011;41249;47.838;16.490;2023-02-03T04:57:39;2.47;;;0.68;;
55372;SDS011;41249;47.838;16.490;2023-02-03T05:00:05;0.88;;;0.68;;
55372;SDS011;41249;47.838;16.490;2023-02-03T05:02:32;0.75;;;0.68;;
55372;SDS011;41249;47.838;16.490;2023-02-03T05:04:59;1.40;;;0.60;;
55372;SDS011;41249;47.838;16.490;2023-02-03T05:07:25;2.10;;;0.73;;
55372;SDS011;41249;47.838;16.490;2023-02-03T05:09:52;1.20;;;0.90;;
55372;SDS011;41249;47.838;16.490;2023-02-03T05:12:19;2.00;;;0.70;;
55372;SDS011;41249;47.838;16.490;2023-02-03T05:14:45;0.77;;;0.68;;
55372;SDS011;41249;47.838;16.490;2023-02-03T05:17:12;2.05;;;0.93;;
55372;SDS011;41249;47.838;16.490;2023-02-03T05:19:38;1.48;;;0.98;;
55372;SDS011;41249;47.838;16.490;2023-02-03T05:22:05;1.02;;;0.77;;
55372;SDS011;41249;47.838;16.490;2023-02-03T05:24:31;1.67;;;1.00;;
55372;SDS011;41249;47.838;16.490;2023-02-03T05:26:58;2.00;;;0.80;;
55372;SDS011;41249;47.838;16.490;2023-02-03T05:29:25;1.30;;;0.80;;
55372;SDS011;41249;47.838;16.490;2023-02-03T05:31:51;1.15;;;1.00;;
55372;SDS011;41249;47.838;16.490;2023-02-03T05:34:18;1.27;;;0.77;;
55372;SDS011;41249;47.838;16.490;2023-02-03T05:36:44;0.90;;;0.73;;
55372;SDS011;41249;47.838;16.490;2023-02-03T05:39:11;1.08;;;0.80;;
55372;SDS011;41249;47.838;16.490;2023-02-03T05:41:37;0.93;;;0.70;;
55372;SDS011;41249;47.838;16.490;2023-02-03T05:44:24;2.33;;;0.75;;
55372;SDS011;41249;47.838;16.490;2023-02-03T05:46:53;3.03;;;0.93;;
55372;SDS011;41249;47.838;16.490;2023-02-03T05:49:21;0.55;;;0.55;;
55372;SDS011;41249;47.838;16.490;2023-02-03T05:51:50;1.50;;;0.93;;
55372;SDS011;41249;47.838;16.490;2023-02-03T05:54:18;0.93;;;0.52;;
55372;SDS011;41249;47.838;16.490;2023-02-03T05:56:45;1.15;;;0.60;;
55372;SDS011;41249;47.838;16.490;2023-02-03T05:59:13;1.13;;;0.60;;
55372;SDS011;41249;47.838;16.490;2023-02-03T06:01:40;0.30;;;0.30;;
55372;SDS011;41249;47.838;16.490;2023-02-03T06:04:06;0.60;;;0.50;;
55372;SDS011;41249;47.838;16.490;2023-02-03T06:06:33;0.75;;;0.60;;
55372;SDS011;41249;47.838;16.490;2023-02-03T06:09:00;1.83;;;0.80;;
55372;SDS011;41249;47.838;16.490;2023-02-03T06:11:31;1.42;;;0.70;;
55372;SDS011;41249;47.838;16.490;2023-02-03T06:13:58;1.08;;;0.60;;
55372;SDS011;41249;47.838;16.490;2023-02-03T06:16:26;0.30;;;0.30;;
55372;SDS011;41249;47.838;16.490;2023-02-03T06:18:54;2.63;;;0.70;;
55372;SDS011;41249;47.838;16.490;2023-02-03T06:21:26;1.27;;;0.70;;
55372;SDS011;41249;47.838;16.490;2023-02-03T06:23:53;1.17;;;0.70;;
55372;SDS011;41249;47.838;16.490;2023-02-03T06:26:21;1.17;;;0.60;;
55372;SDS011;41249;47.838;16.490;2023-02-03T06:28:47;1.15;;;0.50;;
55372;SDS011;41249;47.838;16.490;2023-02-03T06:31:14;1.80;;;0.73;;
55372;SDS011;41249;47.838;16.490;2023-02-03T06:33:41;0.73;;;0.40;;
55372;SDS011;41249;47.838;16.490;2023-02-03T06:36:07;0.60;;;0.50;;
55372;SDS011;41249;47.838;16.490;2023-02-03T06:38:34;0.30;;;0.30;;
55372;SDS011;41249;47.838;16.490;2023-02-03T06:41:01;0.60;;;0.50;;
55372;SDS011;41249;47.838;16.490;2023-02-03T06:43:27;1.15;;;0.70;;
55372;SDS011;41249;47.838;16.490;2023-02-03T06:45:54;0.68;;;0.50;;
55372;SDS011;41249;47.838;16.490;2023-02-03T06:48:21;1.20;;;0.70;;
55372;SDS011;41249;47.838;16.490;2023-02-03T06:50:47;1.42;;;0.68;;
55372;SDS011;41249;47.838;16.490;2023-02-03T06:53:14;1.00;;;0.50;;
55372;SDS011;41249;47.838;16.490;2023-02-03T06:55:40;1.42;;;0.70;;
55372;SDS011;41249;47.838;16.490;2023-02-03T06:58:07;0.85;;;0.57;;
55372;SDS011;41249;47.838;16.490;2023-02-03T07:00:34;0.57;;;0.47;;
55372;SDS011;41249;47.838;16.490;2023-02-03T07:03:00;0.85;;;0.55;;
55372;SDS011;41249;47.838;16.490;2023-02-03T07:05:28;1.02;;;0.30;;
55372;SDS011;41249;47.838;16.490;2023-02-03T07:07:55;0.85;;;0.50;;
55372;SDS011;41249;47.838;16.490;2023-02-03T07:10:21;0.68;;;0.30;;
55372;SDS011;41249;47.838;16.490;2023-02-03T07:12:48;0.30;;;0.30;;
55372;SDS011;41249;47.838;16.490;2023-02-03T07:15:16;0.50;;;0.40;;
55372;SDS011;41249;47.838;16.490;2023-02-03T07:17:43;0.20;;;0.20;;
55372;SDS011;41249;47.838;16.490;2023-02-03T07:20:13;0.52;;;0.30;;
55372;SDS011;41249;47.838;16.490;2023-02-03T07:22:40;1.65;;;0.43;;
55372;SDS011;41249;47.838;16.490;2023-02-03T07:25:09;1.00;;;0.40;;
55372;SDS011;41249;47.838;16.490;2023-02-03T07:27:35;0.40;;;0.30;;
55372;SDS011;41249;47.838;16.490;2023-02-03T07:30:02;1.25;;;0.43;;
55372;SDS011;41249;47.838;16.490;2023-02-03T07:32:29;0.43;;;0.43;;
55372;SDS011;41249;47.838;16.490;2023-02-03T07:34:58;1.40;;;0.52;;
55372;SDS011;41249;47.838;16.490;2023-02-03T07:37:26;0.43;;;0.40;;
55372;SDS011;41249;47.838;16.490;2023-02-03T07:39:53;1.17;;;0.88;;
55372;SDS011;41249;47.838;16.490;2023-02-03T07:42:19;1.05;;;0.73;;
55372;SDS011;41249;47.838;16.490;2023-02-03T07:44:46;1.10;;;0.50;;
55372;SDS011;41249;47.838;16.490;2023-02-03T07:47:12;2.13;;;0.50;;
55372;SDS011;41249;47.838;16.490;2023-02-03T07:49:39;0.75;;;0.50;;
55372;SDS011;41249;47.838;16.490;2023-02-03T07:52:05;0.60;;;0.50;;
55372;SDS011;41249;47.838;16.490;2023-02-03T07:54:32;1.00;;;0.65;;
55372;SDS011;41249;47.838;16.490;2023-02-03T07:56:58;3.60;;;0.57;;
55372;SDS011;41249;47.838;16.490;2023-02-03T07:59:25;0.85;;;0.50;;
55372;SDS011;41249;47.838;16.490;2023-02-03T08:01:51;1.90;;;0.60;;
55372;SDS011;41249;47.838;16.490;2023-02-03T08:04:21;3.47;;;0.60;;
55372;SDS011;41249;47.838;16.490;2023-02-03T08:06:49;1.92;;;0.60;;
55372;SDS011;41249;47.838;16.490;2023-02-03T08:09:16;1.70;;;0.45;;
55372;SDS011;41249;47.838;16.490;2023-02-03T08:11:42;0.82;;;0.50;;
55372;SDS011;41249;47.838;16.490;2023-02-03T08:14:09;1.55;;;0.77;;
55372;SDS011;41249;47.838;16.490;2023-02-03T08:16:35;1.83;;;0.90;;
55372;SDS011;41249;47.838;16.490;2023-02-03T08:19:02;1.33;;;0.77;;
55372;SDS011;41249;47.838;16.490;2023-02-03T08:21:28;0.90;;;0.60;;
55372;SDS011;41249;47.838;16.490;2023-02-03T08:23:55;3.08;;;0.82;;
55372;SDS011;41249;47.838;16.490;2023-02-03T08:26:21;2.95;;;0.90;;
55372;SDS011;41249;47.838;16.490;2023-02-03T08:28:48;1.65;;;0.88;;
55372;SDS011;41249;47.838;16.490;2023-02-03T08:31:15;1.30;;;0.90;;
55372;SDS011;41249;47.838;16.490;2023-02-03T08:33:42;2.60;;;0.63;;
55372;SDS011;41249;47.838;16.490;2023-02-03T08:36:09;1.80;;;0.80;;
55372;SDS011;41249;47.838;16.490;2023-02-03T08:38:37;1.77;;;0.73;;
55372;SDS011;41249;47.838;16.490;2023-02-03T08:41:08;1.48;;;0.70;;
55372;SDS011;41249;47.838;16.490;2023-02-03T08:43:36;2.28;;;0.77;;
55372;SDS011;41249;47.838;16.490;2023-02-03T08:46:03;2.15;;;0.82;;
55372;SDS011;41249;47.838;16.490;2023-02-03T08:48:32;2.90;;;0.90;;
55372;SDS011;41249;47.838;16.490;2023-02-03T08:50:58;1.10;;;0.90;;
55372;SDS011;41249;47.838;16.490;2023-02-03T08:53:25;0.75;;;0.52;;
55372;SDS011;41249;47.838;16.490;2023-02-03T08:55:52;1.75;;;0.80;;
55372;SDS011;41249;47.838;16.490;2023-02-03T08:58:19;1.50;;;0.82;;
55372;SDS011;41249;47.838;16.490;2023-02-03T09:00:45;0.60;;;0.50;;
55372;SDS011;41249;47.838;16.490;2023-02-03T09:03:15;3.72;;;0.90;;
55372;SDS011;41249;47.838;16.490;2023-02-03T09:05:41;1.60;;;1.02;;
55372;SDS011;41249;47.838;16.490;2023-02-03T09:08:08;1.50;;;0.88;;
55372;SDS011;41249;47.838;16.490;2023-02-03T09:10:34;2.47;;;1.10;;
55372;SDS011;41249;47.838;16.490;2023-02-03T09:13:01;3.15;;;0.93;;
55372;SDS011;41249;47.838;16.490;2023-02-03T09:15:28;6.47;;;1.05;;
55372;SDS011;41249;47.838;16.490;2023-02-03T09:17:55;1.63;;;1.20;;
55372;SDS011;41249;47.838;16.490;2023-02-03T09:20:23;2.60;;;1.20;;
55372;SDS011;41249;47.838;16.490;2023-02-03T09:22:52;1.00;;;0.80;;
55372;SDS011;41249;47.838;16.490;2023-02-03T09:25:20;0.95;;;0.80;;
55372;SDS011;41249;47.838;16.490;2023-02-03T09:27:46;3.70;;;0.68;;
55372;SDS011;41249;47.838;16.490;2023-02-03T09:30:13;1.58;;;0.93;;
55372;SDS011;41249;47.838;16.490;2023-02-03T09:32:40;1.92;;;0.65;;
55372;SDS011;41249;47.838;16.490;2023-02-03T09:35:06;0.60;;;0.55;;
55372;SDS011;41249;47.838;16.490;2023-02-03T09:37:33;2.00;;;0.40;;
55372;SDS011;41249;47.838;16.490;2023-02-03T09:40:00;0.70;;;0.60;;
55372;SDS011;41249;47.838;16.490;2023-02-03T09:42:40;0.57;;;0.43;;
55372;SDS011;41249;47.838;16.490;2023-02-03T09:45:23;1.08;;;0.50;;
55372;SDS011;41249;47.838;16.490;2023-02-03T09:47:52;1.10;;;0.55;;
55372;SDS011;41249;47.838;16.490;2023-02-03T09:50:25;2.40;;;0.75;;
55372;SDS011;41249;47.838;16.490;2023-02-03T09:55:34;2.58;;;0.63;;
55372;SDS011;41249;47.838;16.490;2023-02-03T09:58:10;2.15;;;0.50;;
55372;SDS011;41249;47.838;16.490;2023-02-03T10:19:18;0.80;;;0.50;;
55372;SDS011;41249;47.838;16.490;2023-02-03T10:21:50;0.47;;;0.40;;
55372;SDS011;41249;47.838;16.490;2023-02-03T10:24:23;1.92;;;1.02;;
55372;SDS011;41249;47.838;16.490;2023-02-03T10:26:53;0.30;;;0.30;;
55372;SDS011;41249;47.838;16.490;2023-02-03T10:29:23;1.55;;;0.60;;
55372;SDS011;41249;47.838;16.490;2023-02-03T10:31:58;0.35;;;0.30;;
55372;SDS011;41249;47.838;16.490;2023-02-03T10:34:25;0.77;;;0.40;;
55372;SDS011;41249;47.838;16.490;2023-02-03T10:36:56;1.15;;;0.40;;
55372;SDS011;41249;47.838;16.490;2023-02-03T10:39:32;2.28;;;0.45;;
55372;SDS011;41249;47.838;16.490;2023-02-03T10:42:17;2.10;;;0.70;;
55372;SDS011;41249;47.838;16.490;2023-02-03T10:44:46;1.55;;;0.82;;
55372;SDS011;41249;47.838;16.490;2023-02-03T10:47:33;1.58;;;0.55;;
55372;SDS011;41249;47.838;16.490;2023-02-03T10:50:05;4.25;;;2.05;;
55372;SDS011;41249;47.838;16.490;2023-02-03T10:52:39;2.83;;;1.30;;
55372;SDS011;41249;47.838;16.490;2023-02-03T10:55:07;4.93;;;2.38;;
55372;SDS011;41249;47.838;16.490;2023-02-03T10:57:55;4.30;;;2.35;;
55372;SDS011;41249;47.838;16.490;2023-02-03T11:00:27;4.50;;;1.83;;
55372;SDS011;41249;47.838;16.490;2023-02-03T11:03:01;8.80;;;4.20;;
55372;SDS011;41249;47.838;16.490;2023-02-03T11:05:31;11.50;;;5.00;;
55372;SDS011;41249;47.838;16.490;2023-02-03T11:07:58;13.23;;;6.13;;
55372;SDS011;41249;47.838;16.490;2023-02-03T11:10:35;9.95;;;5.35;;
55372;SDS011;41249;47.838;16.490;2023-02-03T11:18:28;3.72;;;1.77;;
55372;SDS011;41249;47.838;16.490;2023-02-03T11:20:59;3.15;;;1.40;;
55372;SDS011;41249;47.838;16.490;2023-02-03T11:23:35;1.55;;;1.00;;
55372;SDS011;41249;47.838;16.490;2023-02-03T11:26:12;0.93;;;0.55;;
55372;SDS011;41249;47.838;16.490;2023-02-03T11:28:41;0.57;;;0.40;;
55372;SDS011;41249;47.838;16.490;2023-02-03T11:31:15;0.85;;;0.50;;
55372;SDS011;41249;47.838;16.490;2023-02-03T11:33:46;0.65;;;0.50;;
55372;SDS011;41249;47.838;16.490;2023-02-03T11:36:16;0.82;;;0.47;;
55372;SDS011;41249;47.838;16.490;2023-02-03T11:38:43;0.93;;;0.47;;
55372;SDS011;41249;47.838;16.490;2023-02-03T11:41:28;0.70;;;0.30;;
55372;SDS011;41249;47.838;16.490;2023-02-03T11:44:09;0.40;;;0.40;;
55372;SDS011;41249;47.838;16.490;2023-02-03T11:46:52;0.55;;;0.30;;
55372;SDS011;41249;47.838;16.490;2023-02-03T11:49:52;0.40;;;0.40;;
55372;SDS011;41249;47.838;16.490;2023-02-03T12:12:07;0.70;;;0.40;;
55372;SDS011;41249;47.838;16.490;2023-02-03T12:21:04;0.60;;;0.40;;
55372;SDS011;41249;47.838;16.490;2023-02-03T12:26:43;0.47;;;0.35;;
55372;SDS011;41249;47.838;16.490;2023-02-03T12:29:20;0.85;;;0.47;;
55372;SDS011;41249;47.838;16.490;2023-02-03T12:34:31;0.40;;;0.40;;
55372;SDS011;41249;47.838;16.490;2023-02-03T12:37:25;0.20;;;0.20;;
55372;SDS011;41249;47.838;16.490;2023-02-03T12:40:01;0.68;;;0.50;;
55372;SDS011;41249;47.838;16.490;2023-02-03T12:42:39;0.20;;;0.20;;
55372;SDS011;41249;47.838;16.490;2023-02-03T12:45:13;1.00;;;0.25;;
55372;SDS011;41249;47.838;16.490;2023-02-03T12:53:01;1.48;;;0.70;;
55372;SDS011;41249;47.838;16.490;2023-02-03T12:55:49;1.05;;;0.47;;
55372;SDS011;41249;47.838;16.490;2023-02-03T12:58:24;0.52;;;0.43;;
55372;SDS011;41249;47.838;16.490;2023-02-03T13:00:59;0.90;;;0.40;;
55372;SDS011;41249;47.838;16.490;2023-02-03T13:03:48;0.30;;;0.30;;
55372;SDS011;41249;47.838;16.490;2023-02-03T13:06:28;0.43;;;0.32;;
55372;SDS011;41249;47.838;16.490;2023-02-03T13:12:08;0.90;;;0.40;;
55372;SDS011;41249;47.838;16.490;2023-02-03T13:14:53;0.30;;;0.30;;
55372;SDS011;41249;47.838;16.490;2023-02-03T13:17:30;0.35;;;0.20;;
55372;SDS011;41249;47.838;16.490;2023-02-03T13:20:23;0.40;;;0.30;;
55372;SDS011;41249;47.838;16.490;2023-02-03T13:22:52;1.63;;;0.50;;
55372;SDS011;41249;47.838;16.490;2023-02-03T13:27:58;0.30;;;0.25;;
55372;SDS011;41249;47.838;16.490;2023-02-03T13:44:50;0.40;;;0.40;;
55372;SDS011;41249;47.838;16.490;2023-02-03T13:47:26;0.43;;;0.30;;
55372;SDS011;41249;47.838;16.490;2023-02-03T13:50:15;2.17;;;1.05;;
55372;SDS011;41249;47.838;16.490;2023-02-03T13:53:04;5.82;;;3.40;;
55372;SDS011;41249;47.838;16.490;2023-02-03T13:57:59;2.75;;;1.40;;
55372;SDS011;41249;47.838;16.490;2023-02-03T14:05:52;0.50;;;0.40;;
55372;SDS011;41249;47.838;16.490;2023-02-03T14:11:36;0.63;;;0.40;;
55372;SDS011;41249;47.838;16.490;2023-02-03T14:16:38;0.45;;;0.30;;
55372;SDS011;41249;47.838;16.490;2023-02-03T14:22:32;0.32;;;0.30;;
55372;SDS011;41249;47.838;16.490;2023-02-03T14:25:03;0.32;;;0.32;;
55372;SDS011;41249;47.838;16.490;2023-02-03T14:27:31;0.60;;;0.32;;
55372;SDS011;41249;47.838;16.490;2023-02-03T14:30:11;0.20;;;0.20;;
55372;SDS011;41249;47.838;16.490;2023-02-03T14:35:30;0.35;;;0.30;;
55372;SDS011;41249;47.838;16.490;2023-02-03T14:38:01;0.28;;;0.28;;
55372;SDS011;41249;47.838;16.490;2023-02-03T14:51:50;0.55;;;0.20;;
55372;SDS011;41249;47.838;16.490;2023-02-03T15:05:38;0.65;;;0.30;;
55372;SDS011;41249;47.838;16.490;2023-02-03T15:08:42;0.30;;;0.30;;
55372;SDS011;41249;47.838;16.490;2023-02-03T15:11:17;0.30;;;0.30;;
55372;SDS011;41249;47.838;16.490;2023-02-03T15:13:46;0.95;;;0.40;;
55372;SDS011;41249;47.838;16.490;2023-02-03T15:16:13;0.38;;;0.35;;
55372;SDS011;41249;47.838;16.490;2023-02-03T15:18:44;1.20;;;0.60;;
55372;SDS011;41249;47.838;16.490;2023-02-03T15:21:17;0.43;;;0.38;;
55372;SDS011;41249;47.838;16.490;2023-02-03T15:23:45;1.08;;;0.60;;
55372;SDS011;41249;47.838;16.490;2023-02-03T15:26:15;0.30;;;0.30;;
55372;SDS011;41249;47.838;16.490;2023-02-03T15:34:02;0.30;;;0.30;;
55372;SDS011;41249;47.838;16.490;2023-02-03T15:36:37;0.32;;;0.32;;
55372;SDS011;41249;47.838;16.490;2023-02-03T15:39:12;1.42;;;0.50;;
55372;SDS011;41249;47.838;16.490;2023-02-03T15:41:42;4.43;;;0.40;;
55372;SDS011;41249;47.838;16.490;2023-02-03T15:44:18;0.32;;;0.32;;
55372;SDS011;41249;47.838;16.490;2023-02-03T15:46:53;0.43;;;0.40;;
55372;SDS011;41249;47.838;16.490;2023-02-03T15:49:23;0.45;;;0.30;;
55372;SDS011;41249;47.838;16.490;2023-02-03T15:54:23;0.28;;;0.28;;
55372;SDS011;41249;47.838;16.490;2023-02-03T15:57:02;0.50;;;0.30;;
55372;SDS011;41249;47.838;16.490;2023-02-03T15:59:37;0.63;;;0.22;;
55372;SDS011;41249;47.838;16.490;2023-02-03T16:02:15;0.88;;;0.30;;
55372;SDS011;41249;47.838;16.490;2023-02-03T16:04:45;1.10;;;0.50;;
55372;SDS011;41249;47.838;16.490;2023-02-03T16:07:20;0.40;;;0.30;;
55372;SDS011;41249;47.838;16.490;2023-02-03T16:09:54;1.35;;;0.30;;
55372;SDS011;41249;47.838;16.490;2023-02-03T16:17:24;0.35;;;0.20;;
55372;SDS011;41249;47.838;16.490;2023-02-03T16:19:53;0.60;;;0.28;;
55372;SDS011;41249;47.838;16.490;2023-02-03T16:22:40;1.23;;;0.32;;
55372;SDS011;41249;47.838;16.490;2023-02-03T16:25:40;0.20;;;0.20;;
55372;SDS011;41249;47.838;16.490;2023-02-03T16:28:01;0.22;;;0.20;;
55372;SDS011;41249;47.838;16.490;2023-02-03T16:31:16;0.17;;;0.17;;
55372;SDS011;41249;47.838;16.490;2023-02-03T16:34:23;0.28;;;0.28;;
55372;SDS011;41249;47.838;16.490;2023-02-03T16:37:12;0.40;;;0.30;;
55372;SDS011;41249;47.838;16.490;2023-02-03T16:40:07;0.73;;;0.52;;
55372;SDS011;41249;47.838;16.490;2023-02-03T16:42:57;0.60;;;0.40;;
55372;SDS011;41249;47.838;16.490;2023-02-03T16:45:42;0.17;;;0.17;;
55372;SDS011;41249;47.838;16.490;2023-02-03T16:48:27;0.43;;;0.30;;
55372;SDS011;41249;47.838;16.490;2023-02-03T16:51:13;0.30;;;0.30;;
55372;SDS011;41249;47.838;16.490;2023-02-03T16:53:42;0.10;;;0.10;;
55372;SDS011;41249;47.838;16.490;2023-02-03T16:56:11;0.43;;;0.40;;
55372;SDS011;41249;47.838;16.490;2023-02-03T16:58:38;0.80;;;0.43;;
55372;SDS011;41249;47.838;16.490;2023-02-03T17:01:05;0.93;;;0.40;;
55372;SDS011;41249;47.838;16.490;2023-02-03T17:03:33;0.20;;;0.20;;
55372;SDS011;41249;47.838;16.490;2023-02-03T17:06:02;0.52;;;0.40;;
55372;SDS011;41249;47.838;16.490;2023-02-03T17:08:31;0.20;;;0.20;;
55372;SDS011;41249;47.838;16.490;2023-02-03T17:11:05;1.40;;;0.40;;
55372;SDS011;41249;47.838;16.490;2023-02-03T17:13:34;0.50;;;0.40;;
55372;SDS011;41249;47.838;16.490;2023-02-03T17:16:06;0.40;;;0.40;;
55372;SDS011;41249;47.838;16.490;2023-02-03T17:18:36;0.25;;;0.25;;
55372;SDS011;41249;47.838;16.490;2023-02-03T17:21:04;1.13;;;0.30;;
55372;SDS011;41249;47.838;16.490;2023-02-03T17:23:36;0.30;;;0.30;;
55372;SDS011;41249;47.838;16.490;2023-02-03T17:26:05;0.40;;;0.30;;
55372;SDS011;41249;47.838;16.490;2023-02-03T17:28:32;0.28;;;0.28;;
55372;SDS011;41249;47.838;16.490;2023-02-03T17:31:01;0.45;;;0.40;;
55372;SDS011;41249;47.838;16.490;2023-02-03T17:33:29;0.50;;;0.40;;
55372;SDS011;41249;47.838;16.490;2023-02-03T17:36:01;0.45;;;0.40;;
55372;SDS011;41249;47.838;16.490;2023-02-03T17:38:34;0.32;;;0.30;;
55372;SDS011;41249;47.838;16.490;2023-02-03T17:41:29;0.40;;;0.30;;
55372;SDS011;41249;47.838;16.490;2023-02-03T17:44:13;0.50;;;0.35;;
55372;SDS011;41249;47.838;16.490;2023-02-03T17:46:57;0.30;;;0.30;;
55372;SDS011;41249;47.838;16.490;2023-02-03T17:49:41;0.90;;;0.32;;
55372;SDS011;41249;47.838;16.490;2023-02-03T17:52:30;0.30;;;0.30;;